Time;durP1;ratioP1;P1;durP2;ratioP2;P2;SDS_P1;SDS_P2;PMS_P1;PMS_P2;Temp;Humidity;BMP_temperature;BMP_pressure;BME280_temperature;BME280_humidity;BME280_pressure;Samples;Min_cycle;Max_cycle;Signal;HPM_P1;HPM_P2
2021/04/13 00:01:23;;;;;;;12.07;10.87;;;1.90;99.90;;;;;;5010386;28;20853;-79
2021/04/13 00:04:03;;;;;;;12.10;10.90;;;1.90;99.90;;;;;;5011182;28;20438;-80
2021/04/13 00:06:41;;;;;;;13.73;12.43;;;1.90;99.90;;;;;;5015309;28;20493;-78
2021/04/13 00:09:13;;;;;;;13.17;11.93;;;1.80;99.90;;;;;;5009072;28;20528;-80
2021/04/13 00:11:41;;;;;;;13.17;11.87;;;1.80;99.90;;;;;;5013823;28;20441;-78
2021/04/13 00:14:10;;;;;;;13.43;12.10;;;1.80;99.90;;;;;;5012522;28;20439;-78
2021/04/13 00:16:36;;;;;;;11.90;10.80;;;1.70;99.90;;;;;;5011329;28;20460;-78
2021/04/13 00:19:05;;;;;;;12.63;11.53;;;1.70;99.90;;;;;;5004759;28;20468;-79
2021/04/13 00:21:35;;;;;;;13.30;11.90;;;1.60;99.90;;;;;;5013623;28;20839;-79
2021/04/13 00:24:07;;;;;;;12.73;11.53;;;1.60;99.90;;;;;;5014702;28;20815;-79
2021/04/13 00:26:34;;;;;;;12.50;11.43;;;1.60;99.90;;;;;;5008790;28;20451;-78
2021/04/13 00:29:07;;;;;;;11.93;10.93;;;1.70;99.90;;;;;;5029866;23;20484;-77
2021/04/13 00:31:40;;;;;;;12.63;11.43;;;1.70;99.90;;;;;;4994672;28;20452;-78
2021/04/13 00:34:14;;;;;;;12.33;11.23;;;1.60;99.90;;;;;;4998550;28;20433;-78
2021/04/13 00:36:41;;;;;;;12.30;11.20;;;1.50;99.90;;;;;;4996065;28;20464;-78
2021/04/13 00:39:20;;;;;;;11.53;10.53;;;1.40;99.90;;;;;;5008852;28;20934;-78
2021/04/13 00:41:50;;;;;;;11.67;10.67;;;1.40;99.90;;;;;;5016102;28;20482;-78
2021/04/13 00:44:18;;;;;;;13.20;12.10;;;1.40;99.90;;;;;;5019171;28;20448;-78
2021/04/13 00:46:51;;;;;;;12.57;11.60;;;1.50;99.90;;;;;;5020778;28;20508;-78
2021/04/13 00:49:22;;;;;;;11.53;10.53;;;1.50;99.90;;;;;;5013154;28;20534;-78
2021/04/13 00:51:52;;;;;;;11.17;10.23;;;1.40;99.90;;;;;;5015411;28;20444;-78
2021/04/13 00:54:26;;;;;;;11.63;10.63;;;1.40;99.90;;;;;;5021524;28;20457;-78
2021/04/13 00:56:53;;;;;;;12.60;11.40;;;1.30;99.90;;;;;;5019637;28;20451;-77
2021/04/13 00:59:22;;;;;;;13.93;11.83;;;1.40;99.90;;;;;;5010940;28;20476;-78
2021/04/13 01:01:53;;;;;;;12.40;11.30;;;1.40;99.90;;;;;;5015799;28;20473;-77
2021/04/13 01:04:27;;;;;;;12.53;11.30;;;1.40;99.90;;;;;;5018548;28;20448;-79
2021/04/13 01:07:01;;;;;;;11.97;10.87;;;1.40;99.90;;;;;;5007282;28;20447;-78
2021/04/13 01:09:29;;;;;;;11.43;10.43;;;1.30;99.90;;;;;;5011584;28;20832;-78
2021/04/13 01:11:58;;;;;;;12.17;11.07;;;1.30;99.90;;;;;;5008029;28;20445;-78
2021/04/13 01:14:27;;;;;;;12.33;11.27;;;1.30;99.90;;;;;;5012658;28;20532;-78
2021/04/13 01:16:56;;;;;;;13.60;12.43;;;1.30;99.90;;;;;;5018345;28;20507;-78
2021/04/13 01:19:32;;;;;;;13.63;12.27;;;1.40;99.90;;;;;;5017928;28;20471;-78
2021/04/13 01:22:08;;;;;;;13.80;12.53;;;1.40;99.90;;;;;;5016369;28;20478;-78
2021/04/13 01:24:38;;;;;;;15.33;12.83;;;1.50;99.90;;;;;;5010781;28;20529;-78
2021/04/13 01:27:10;;;;;;;13.43;11.97;;;1.60;99.90;;;;;;5017252;28;20441;-78
2021/04/13 01:29:38;;;;;;;13.23;12.03;;;1.60;99.90;;;;;;5020736;28;20486;-78
2021/04/13 01:32:07;;;;;;;13.30;12.10;;;1.60;99.90;;;;;;5013549;28;20440;-78
2021/04/13 01:34:53;;;;;;;12.47;11.33;;;1.60;99.90;;;;;;5017556;28;20439;-78
2021/04/13 01:37:32;;;;;;;13.20;11.93;;;1.60;99.90;;;;;;5016629;28;20453;-78
2021/04/13 01:40:02;;;;;;;13.50;12.10;;;1.60;99.90;;;;;;5017901;28;20893;-78
2021/04/13 01:42:32;;;;;;;14.20;13.00;;;1.50;99.90;;;;;;5032011;28;20852;-78
2021/04/13 01:45:02;;;;;;;14.07;12.87;;;1.60;99.90;;;;;;5007629;28;20455;-78
2021/04/13 01:47:29;;;;;;;14.63;12.97;;;1.60;99.90;;;;;;5018962;28;20438;-78
2021/04/13 01:49:58;;;;;;;15.33;13.67;;;1.60;99.90;;;;;;5005598;28;20660;-78
2021/04/13 01:52:29;;;;;;;13.53;12.37;;;1.70;99.90;;;;;;5019644;28;20805;-78
2021/04/13 01:54:57;;;;;;;13.50;12.20;;;1.70;99.90;;;;;;5033476;28;20462;-78
2021/04/13 01:57:36;;;;;;;14.63;13.23;;;1.60;99.90;;;;;;5019556;28;20507;-78
2021/04/13 02:00:11;;;;;;;14.53;13.00;;;1.60;99.90;;;;;;5019776;28;20451;-78
2021/04/13 02:02:51;;;;;;;14.83;13.43;;;1.70;99.90;;;;;;5021911;28;20487;-78
2021/04/13 02:05:22;;;;;;;13.20;12.10;;;1.70;99.90;;;;;;5023594;28;20503;-78
2021/04/13 02:07:58;;;;;;;14.07;12.70;;;1.60;99.90;;;;;;5024352;28;20446;-78
2021/04/13 02:10:30;;;;;;;13.87;12.57;;;1.60;99.90;;;;;;5020414;28;20459;-77
2021/04/13 02:13:03;;;;;;;13.83;12.53;;;1.50;99.90;;;;;;5037215;28;20518;-78
2021/04/13 02:15:37;;;;;;;13.70;12.50;;;1.50;99.90;;;;;;5018520;28;20448;-78
2021/04/13 02:18:09;;;;;;;14.60;13.30;;;1.50;99.90;;;;;;5031327;28;20443;-78
2021/04/13 02:20:42;;;;;;;14.93;13.60;;;1.40;99.90;;;;;;5029402;28;20439;-78
2021/04/13 02:23:09;;;;;;;14.23;13.03;;;1.30;99.90;;;;;;5025281;28;20476;-78
2021/04/13 02:25:38;;;;;;;14.20;12.90;;;1.30;99.90;;;;;;5029401;28;20787;-78
2021/04/13 02:28:06;;;;;;;13.97;12.83;;;1.30;99.90;;;;;;5019351;28;20454;-78
2021/04/13 02:30:37;;;;;;;14.67;13.47;;;1.20;99.90;;;;;;5021450;28;20463;-78
2021/04/13 02:33:19;;;;;;;13.93;12.63;;;1.10;99.90;;;;;;5022229;28;20465;-79
2021/04/13 02:35:47;;;;;;;14.73;13.43;;;1.10;99.90;;;;;;5036163;28;20907;-77
2021/04/13 02:38:17;;;;;;;15.50;14.00;;;1.00;99.90;;;;;;5024905;28;20443;-77
2021/04/13 02:40:51;;;;;;;14.83;13.57;;;1.00;99.90;;;;;;5027493;28;20426;-78
2021/04/13 02:43:25;;;;;;;14.67;13.47;;;1.00;99.90;;;;;;5020450;28;20955;-80
2021/04/13 02:45:58;;;;;;;14.50;13.20;;;1.00;99.90;;;;;;5012212;28;20454;-80
2021/04/13 02:48:28;;;;;;;13.57;12.47;;;1.00;99.90;;;;;;5018254;28;20485;-80
2021/04/13 02:51:04;;;;;;;15.27;14.03;;;1.00;99.90;;;;;;5018734;28;20443;-80
2021/04/13 02:53:39;;;;;;;14.20;13.00;;;1.00;99.90;;;;;;5023488;28;20467;-79
2021/04/13 02:56:11;;;;;;;14.43;13.13;;;1.00;99.90;;;;;;5012177;28;20462;-79
2021/04/13 02:58:43;;;;;;;16.33;14.73;;;1.00;99.90;;;;;;5025551;28;20463;-79
2021/04/13 03:01:16;;;;;;;13.77;12.47;;;1.00;99.90;;;;;;5031431;28;20478;-79
2021/04/13 03:03:45;;;;;;;13.30;12.20;;;1.00;99.90;;;;;;5024230;28;20467;-80
2021/04/13 03:06:13;;;;;;;14.63;13.40;;;0.90;99.90;;;;;;5020618;28;20451;-80
2021/04/13 03:08:42;;;;;;;14.00;12.73;;;0.80;99.90;;;;;;5029836;28;20466;-79
2021/04/13 03:11:17;;;;;;;14.40;13.27;;;0.80;99.90;;;;;;5013576;28;20432;-78
2021/04/13 03:13:44;;;;;;;15.73;14.33;;;0.60;99.90;;;;;;5016226;28;20440;-78
2021/04/13 03:16:14;;;;;;;15.53;14.23;;;0.60;99.90;;;;;;5014872;28;20456;-79
2021/04/13 03:18:43;;;;;;;15.73;14.43;;;0.60;99.90;;;;;;5015083;28;20530;-79
2021/04/13 03:21:14;;;;;;;14.43;13.23;;;0.60;99.90;;;;;;5014186;28;20468;-79
2021/04/13 03:23:42;;;;;;;15.50;14.10;;;0.60;99.90;;;;;;5018640;28;20777;-78
2021/04/13 03:26:14;;;;;;;17.10;15.60;;;0.60;99.90;;;;;;5016374;28;20452;-78
2021/04/13 03:28:48;;;;;;;14.73;13.30;;;0.60;99.90;;;;;;5021457;28;20806;-78
2021/04/13 03:31:18;;;;;;;15.97;14.47;;;0.50;99.90;;;;;;5014752;28;20455;-78
2021/04/13 03:33:46;;;;;;;16.40;15.03;;;0.50;99.90;;;;;;5018699;28;20556;-78
2021/04/13 03:36:18;;;;;;;15.70;14.27;;;0.60;99.90;;;;;;5014614;28;20959;-78
2021/04/13 03:38:47;;;;;;;14.33;13.03;;;0.60;99.90;;;;;;5015219;28;20455;-78
2021/04/13 03:41:19;;;;;;;16.70;14.90;;;0.70;99.90;;;;;;5019699;28;20576;-80
2021/04/13 03:43:50;;;;;;;15.77;14.17;;;0.70;99.90;;;;;;5025634;28;20441;-79
2021/04/13 03:46:16;;;;;;;17.27;14.90;;;0.60;99.90;;;;;;5018840;28;20506;-78
2021/04/13 03:48:48;;;;;;;16.70;15.20;;;0.60;99.90;;;;;;5009342;28;20893;-79
2021/04/13 03:51:26;;;;;;;16.30;14.70;;;0.60;99.90;;;;;;5014589;28;20456;-78
2021/04/13 03:53:53;;;;;;;16.60;15.00;;;0.60;99.90;;;;;;5014570;28;20443;-78
2021/04/13 03:56:22;;;;;;;15.07;13.70;;;0.60;99.90;;;;;;5006690;28;20444;-78
2021/04/13 03:58:51;;;;;;;15.73;14.33;;;0.50;99.90;;;;;;5003713;28;20452;-78
2021/04/13 04:01:20;;;;;;;15.67;14.27;;;0.40;99.90;;;;;;5005704;28;20465;-78
2021/04/13 04:03:52;;;;;;;15.20;13.70;;;0.30;99.90;;;;;;5008225;28;20446;-79
2021/04/13 04:06:38;;;;;;;15.43;13.97;;;0.30;99.90;;;;;;5011585;28;20843;-79
2021/04/13 04:09:12;;;;;;;16.07;14.57;;;0.20;99.90;;;;;;5008877;28;20459;-80
2021/04/13 04:11:38;;;;;;;19.00;17.20;;;0.20;99.90;;;;;;5010095;28;20463;-78
2021/04/13 04:14:12;;;;;;;15.87;14.40;;;0.20;99.90;;;;;;5023326;28;20444;-79
2021/04/13 04:16:39;;;;;;;18.00;16.17;;;0.20;99.90;;;;;;5015527;28;20453;-78
2021/04/13 04:19:16;;;;;;;17.20;15.70;;;0.20;99.90;;;;;;5019859;28;20462;-77
2021/04/13 04:21:46;;;;;;;17.10;15.43;;;0.20;99.90;;;;;;5019810;28;20475;-77
2021/04/13 04:24:22;;;;;;;17.53;16.00;;;0.20;99.90;;;;;;5019944;28;20436;-79
2021/04/13 04:26:51;;;;;;;17.30;15.83;;;0.20;99.90;;;;;;5013853;28;20466;-78
2021/04/13 04:29:34;;;;;;;17.97;16.17;;;0.20;99.90;;;;;;5016096;28;20472;-79
2021/04/13 04:32:19;;;;;;;17.50;16.00;;;0.20;99.90;;;;;;5013737;28;20439;-79
2021/04/13 04:34:52;;;;;;;17.17;15.57;;;0.30;99.90;;;;;;5021570;28;20455;-80
2021/04/13 04:37:31;;;;;;;18.37;16.87;;;0.20;99.90;;;;;;5029715;28;20470;-80
2021/04/13 04:40:46;;;;;;;17.80;16.20;;;0.20;99.90;;;;;;5017968;28;20471;-80
2021/04/13 04:43:14;;;;;;;18.20;16.57;;;0.20;99.90;;;;;;4984929;28;20472;-80
2021/04/13 04:45:54;;;;;;;19.23;17.50;;;0.30;99.90;;;;;;5007145;28;20463;-79
2021/04/13 04:48:30;;;;;;;18.00;16.30;;;0.40;99.90;;;;;;5022146;28;20986;-78
2021/04/13 04:50:59;;;;;;;19.47;17.50;;;0.30;99.90;;;;;;5020551;28;20456;-78
2021/04/13 04:53:28;;;;;;;18.70;17.03;;;0.40;99.90;;;;;;5016173;28;20490;-78
2021/04/13 04:55:55;;;;;;;19.23;17.23;;;0.40;99.90;;;;;;5020639;28;20447;-78
2021/04/13 04:58:22;;;;;;;17.77;16.23;;;0.40;99.90;;;;;;5018075;28;20456;-77
2021/04/13 05:00:50;;;;;;;18.00;16.40;;;0.40;99.90;;;;;;5017564;28;20879;-77
2021/04/13 05:03:18;;;;;;;18.00;16.43;;;0.40;99.90;;;;;;5008494;28;20502;-79
2021/04/13 05:05:45;;;;;;;18.53;16.83;;;0.40;99.90;;;;;;5014861;28;20435;-78
2021/04/13 05:08:11;;;;;;;17.07;15.47;;;0.40;99.90;;;;;;5015684;28;20807;-78
2021/04/13 05:10:38;;;;;;;16.47;15.07;;;0.30;99.90;;;;;;5014775;28;20446;-78
2021/04/13 05:13:05;;;;;;;18.20;16.40;;;0.30;99.90;;;;;;5017301;28;20506;-78
2021/04/13 05:15:31;;;;;;;17.90;15.93;;;0.40;99.90;;;;;;5017365;28;20455;-78
2021/04/13 05:17:58;;;;;;;16.83;15.23;;;0.40;99.90;;;;;;5012147;28;20448;-78
2021/04/13 05:20:24;;;;;;;16.97;15.57;;;0.40;99.90;;;;;;5021150;28;20454;-78
2021/04/13 05:22:51;;;;;;;17.73;15.93;;;0.60;99.90;;;;;;5019896;28;20530;-78
2021/04/13 05:25:18;;;;;;;16.87;15.37;;;0.60;99.90;;;;;;5018867;28;20442;-77
2021/04/13 05:27:46;;;;;;;16.37;15.00;;;0.70;99.90;;;;;;5020219;28;20837;-78
2021/04/13 05:30:14;;;;;;;19.80;16.07;;;0.90;99.90;;;;;;5018681;28;20482;-78
2021/04/13 05:32:40;;;;;;;17.70;15.93;;;1.20;99.90;;;;;;5013425;28;20452;-78
2021/04/13 05:35:08;;;;;;;14.87;13.37;;;1.50;99.90;;;;;;5018352;28;20436;-76
2021/04/13 05:37:35;;;;;;;14.00;12.60;;;1.70;99.90;;;;;;5022803;28;20438;-79
2021/04/13 05:40:04;;;;;;;14.07;10.70;;;2.00;99.90;;;;;;5012880;28;20466;-78
2021/04/13 05:42:33;;;;;;;12.50;10.23;;;2.30;99.90;;;;;;5016230;28;20475;-78
2021/04/13 05:45:01;;;;;;;12.27;9.70;;;2.60;99.90;;;;;;5007159;28;20440;-78
2021/04/13 05:47:31;;;;;;;11.57;10.37;;;2.80;99.90;;;;;;5017344;28;20459;-79
2021/04/13 05:49:57;;;;;;;12.70;11.47;;;3.00;99.90;;;;;;5021335;28;20451;-78
2021/04/13 05:52:24;;;;;;;12.20;10.63;;;3.20;99.90;;;;;;5018693;28;20444;-79
2021/04/13 05:54:50;;;;;;;10.33;9.20;;;3.40;99.90;;;;;;5015387;28;20455;-76
2021/04/13 05:57:21;;;;;;;14.63;13.23;;;3.50;99.90;;;;;;5016416;28;20959;-76
2021/04/13 05:59:51;;;;;;;15.27;13.90;;;3.60;99.90;;;;;;5012708;28;20481;-76
2021/04/13 06:02:18;;;;;;;15.60;14.20;;;3.70;99.90;;;;;;5010196;28;21011;-76
2021/04/13 06:04:45;;;;;;;15.63;14.23;;;3.80;99.90;;;;;;5015793;28;20450;-76
2021/04/13 06:07:11;;;;;;;17.00;15.50;;;3.80;99.90;;;;;;5019457;28;20442;-76
2021/04/13 06:09:37;;;;;;;15.83;14.43;;;3.80;99.90;;;;;;5016599;28;20482;-77
2021/04/13 06:12:04;;;;;;;15.93;14.50;;;3.70;99.90;;;;;;5018374;28;20803;-76
2021/04/13 06:14:31;;;;;;;15.50;14.10;;;3.70;99.90;;;;;;5015663;28;20449;-77
2021/04/13 06:16:57;;;;;;;16.17;14.67;;;3.70;99.90;;;;;;5011501;28;20453;-76
2021/04/13 06:19:25;;;;;;;15.80;14.50;;;3.70;99.90;;;;;;5016467;28;20501;-79
2021/04/13 06:21:51;;;;;;;15.73;14.30;;;3.80;99.90;;;;;;5018838;28;20494;-79
2021/04/13 06:24:18;;;;;;;14.10;12.70;;;3.80;99.90;;;;;;5016995;28;20694;-79
2021/04/13 06:26:44;;;;;;;13.20;12.10;;;3.90;99.90;;;;;;5022565;28;20445;-79
2021/04/13 06:29:11;;;;;;;13.93;12.73;;;4.00;99.90;;;;;;5034474;23;20498;-78
2021/04/13 06:31:37;;;;;;;12.57;11.43;;;4.10;99.90;;;;;;5024165;28;20798;-78
2021/04/13 06:34:04;;;;;;;12.30;11.10;;;4.10;99.90;;;;;;5024955;28;20450;-78
2021/04/13 06:36:31;;;;;;;13.37;12.17;;;4.10;99.90;;;;;;5027432;28;20431;-78
2021/04/13 06:38:59;;;;;;;10.53;8.53;;;4.10;99.90;;;;;;5024960;28;20221;-77
2021/04/13 06:41:51;;;;;;;11.00;8.73;;;4.20;99.90;;;;;;5032960;28;20473;-78
2021/04/13 06:44:49;;;;;;;11.30;9.97;;;4.30;99.90;;;;;;5020560;28;20462;-77
2021/04/13 06:47:23;;;;;;;9.90;8.37;;;4.40;99.90;;;;;;5019893;28;20450;-78
2021/04/13 06:50:03;;;;;;;10.47;9.40;;;4.70;99.90;;;;;;5023543;28;20220;-78
2021/04/13 06:52:39;;;;;;;9.80;8.77;;;5.00;99.90;;;;;;5028678;28;20192;-77
2021/04/13 06:55:17;;;;;;;10.13;8.57;;;5.30;99.90;;;;;;5020282;28;20204;-78
2021/04/13 06:57:57;;;;;;;10.87;8.90;;;5.40;99.90;;;;;;5022050;28;20201;-78
2021/04/13 07:00:36;;;;;;;12.43;9.47;;;5.60;99.90;;;;;;5024065;28;20653;-77
2021/04/13 07:03:14;;;;;;;10.60;9.57;;;5.60;99.90;;;;;;5021010;28;20199;-78
2021/04/13 07:05:45;;;;;;;9.73;8.73;;;5.60;99.90;;;;;;5025402;28;20196;-78
2021/04/13 07:08:18;;;;;;;13.50;12.50;;;5.80;99.90;;;;;;5021373;28;20208;-78
2021/04/13 07:10:54;;;;;;;13.87;12.67;;;5.90;99.90;;;;;;5027234;28;20225;-78
2021/04/13 07:13:26;;;;;;;13.07;12.03;;;6.00;99.90;;;;;;5027198;28;20714;-79
2021/04/13 07:16:02;;;;;;;14.70;13.43;;;6.00;99.90;;;;;;5031224;28;20193;-78
2021/04/13 07:18:36;;;;;;;13.77;12.57;;;5.90;99.90;;;;;;5023783;28;20200;-79
2021/04/13 07:21:08;;;;;;;13.87;12.67;;;5.80;99.90;;;;;;5024931;28;20203;-77
2021/04/13 07:23:42;;;;;;;13.60;12.50;;;6.00;99.90;;;;;;5026623;28;20663;-78
2021/04/13 07:26:14;;;;;;;13.97;12.67;;;6.00;99.90;;;;;;5030345;28;20219;-78
2021/04/13 07:28:47;;;;;;;12.63;11.63;;;6.10;99.90;;;;;;5028007;28;20204;-78
2021/04/13 07:31:19;;;;;;;14.80;13.47;;;6.50;99.90;;;;;;5028392;28;20198;-77
2021/04/13 07:33:46;;;;;;;14.37;13.07;;;6.90;99.90;;;;;;5028769;28;20201;-78
2021/04/13 07:36:18;;;;;;;14.03;12.90;;;7.10;99.90;;;;;;5025488;28;20246;-77
2021/04/13 07:38:49;;;;;;;13.40;12.10;;;7.10;99.90;;;;;;5027576;28;20630;-78
2021/04/13 07:41:23;;;;;;;13.77;12.40;;;7.10;99.90;;;;;;5024937;28;20189;-77
2021/04/13 07:43:57;;;;;;;13.77;12.57;;;6.90;99.90;;;;;;5028198;28;20211;-77
2021/04/13 07:46:41;;;;;;;14.10;13.00;;;6.80;99.90;;;;;;5027901;28;20196;-77
2021/04/13 07:49:13;;;;;;;14.20;13.10;;;6.90;99.90;;;;;;5021116;28;20225;-79
2021/04/13 07:51:54;;;;;;;14.67;13.33;;;7.00;99.90;;;;;;5019349;28;20207;-78
2021/04/13 07:54:43;;;;;;;14.47;13.03;;;7.30;99.90;;;;;;5025224;28;20197;-77
2021/04/13 07:57:18;;;;;;;13.83;12.63;;;7.40;99.90;;;;;;5023817;28;20203;-77
2021/04/13 07:59:56;;;;;;;13.90;12.67;;;7.70;99.90;;;;;;5028937;28;20230;-77
2021/04/13 08:02:23;;;;;;;14.23;12.93;;;8.20;99.90;;;;;;5017919;28;20204;-79
2021/04/13 08:04:51;;;;;;;14.03;12.80;;;8.60;99.90;;;;;;5019745;28;20208;-79
2021/04/13 08:07:20;;;;;;;12.97;11.87;;;8.70;99.90;;;;;;5027699;28;20200;-78
2021/04/13 08:10:05;;;;;;;12.50;11.50;;;8.90;99.90;;;;;;5031719;28;20574;-76
2021/04/13 08:12:33;;;;;;;13.97;12.77;;;9.50;99.90;;;;;;5024976;28;20192;-78
2021/04/13 08:15:14;;;;;;;13.37;12.20;;;9.50;99.90;;;;;;5027720;28;20245;-77
2021/04/13 08:18:05;;;;;;;13.17;12.03;;;9.50;99.90;;;;;;5021266;28;20201;-77
2021/04/13 08:20:34;;;;;;;13.17;12.13;;;9.50;99.90;;;;;;5023847;28;20735;-77
2021/04/13 08:23:03;;;;;;;13.80;12.70;;;10.20;99.90;;;;;;5027652;28;20688;-78
2021/04/13 08:25:49;;;;;;;12.10;11.00;;;10.60;99.90;;;;;;5028568;28;20199;-77
2021/04/13 08:28:25;;;;;;;9.20;8.37;;;10.40;99.90;;;;;;5018336;28;20201;-78
2021/04/13 08:34:02;;;;;;;8.80;8.00;;;10.90;99.90;;;;;;5017687;28;20204;-77
2021/04/13 08:36:33;;;;;;;9.60;8.80;;;11.40;99.90;;;;;;5026444;28;20201;-79
2021/04/13 08:39:10;;;;;;;11.33;10.37;;;11.70;99.90;;;;;;5019981;28;20224;-78
2021/04/13 08:41:44;;;;;;;12.30;11.23;;;12.10;99.90;;;;;;5019502;28;20218;-78
2021/04/13 08:44:23;;;;;;;12.40;11.30;;;11.90;99.90;;;;;;5030230;28;20196;-79
2021/04/13 08:46:55;;;;;;;11.67;10.67;;;11.70;99.90;;;;;;5029482;28;20668;-78
2021/04/13 08:49:37;;;;;;;11.87;10.77;;;10.80;99.90;;;;;;5029067;28;20221;-77
2021/04/13 08:52:28;;;;;;;13.10;12.00;;;10.00;99.90;;;;;;5023895;28;20198;-79
2021/04/13 08:55:07;;;;;;;11.90;10.77;;;9.50;99.90;;;;;;5032314;28;20196;-78
2021/04/13 08:57:37;;;;;;;11.37;10.43;;;9.20;99.90;;;;;;5018075;28;20216;-78
2021/04/13 09:00:21;;;;;;;11.60;10.50;;;8.90;99.90;;;;;;5022245;28;20303;-78
2021/04/13 09:02:56;;;;;;;12.20;11.10;;;8.60;99.90;;;;;;5013933;28;20227;-78
2021/04/13 09:05:27;;;;;;;13.77;12.57;;;8.00;99.90;;;;;;5025764;28;20194;-78
2021/04/13 09:07:59;;;;;;;13.33;12.23;;;7.50;99.90;;;;;;5024664;28;20322;-78
2021/04/13 09:10:35;;;;;;;13.97;12.77;;;7.20;99.90;;;;;;5018272;28;20224;-78
2021/04/13 09:13:28;;;;;;;14.73;13.33;;;7.00;99.90;;;;;;5014773;28;20267;-78
2021/04/13 09:16:09;;;;;;;15.93;14.63;;;6.40;99.90;;;;;;5028435;28;20225;-78
2021/04/13 09:18:48;;;;;;;15.87;14.37;;;6.20;99.90;;;;;;5018938;28;20428;-78
2021/04/13 09:21:31;;;;;;;15.13;13.63;;;6.10;99.90;;;;;;5014805;28;20195;-79
2021/04/13 09:24:02;;;;;;;12.53;10.73;;;6.00;99.90;;;;;;5018320;28;20780;-78
2021/04/13 09:26:39;;;;;;;14.70;13.30;;;6.00;99.90;;;;;;5017911;28;20202;-79
2021/04/13 09:29:13;;;;;;;17.70;16.10;;;5.90;99.90;;;;;;5012109;28;20224;-78
2021/04/13 09:31:46;;;;;;;12.23;10.93;;;5.80;99.90;;;;;;5025976;28;20200;-79
2021/04/13 09:34:25;;;;;;;17.90;10.97;;;5.90;99.90;;;;;;5015202;28;20198;-78
2021/04/13 09:37:08;;;;;;;11.57;10.03;;;6.00;99.90;;;;;;5029201;28;20212;-78
2021/04/13 09:39:57;;;;;;;12.27;9.77;;;6.20;99.90;;;;;;5018608;28;20222;-78
2021/04/13 09:42:48;;;;;;;10.63;9.07;;;6.30;99.90;;;;;;5023859;28;20239;-78
2021/04/13 09:45:22;;;;;;;11.63;9.20;;;6.50;99.90;;;;;;5024192;28;20219;-78
2021/04/13 09:48:23;;;;;;;12.87;9.13;;;7.00;99.90;;;;;;5022499;28;20233;-78
2021/04/13 09:51:01;;;;;;;10.20;8.33;;;7.60;99.90;;;;;;5024549;28;20228;-79
2021/04/13 09:53:56;;;;;;;7.60;6.27;;;8.10;99.90;;;;;;5022063;28;20582;-79
2021/04/13 09:56:40;;;;;;;8.83;7.33;;;8.60;99.90;;;;;;5013279;28;20200;-78
2021/04/13 09:59:34;;;;;;;7.77;6.97;;;9.00;99.90;;;;;;5013038;28;20708;-77
2021/04/13 10:02:15;;;;;;;6.53;5.73;;;8.50;99.90;;;;;;5018650;28;20211;-79
2021/04/13 10:04:53;;;;;;;9.30;8.47;;;8.50;99.90;;;;;;5027539;28;20325;-78
2021/04/13 10:07:43;;;;;;;9.10;8.30;;;8.40;99.90;;;;;;5029002;28;20734;-79
2021/04/13 10:10:19;;;;;;;7.97;7.17;;;8.40;99.90;;;;;;5016154;28;20755;-78
2021/04/13 10:13:28;;;;;;;7.87;6.97;;;8.30;99.90;;;;;;5024916;28;20310;-79
2021/04/13 10:16:02;;;;;;;8.20;7.37;;;8.40;99.90;;;;;;5031242;28;20194;-78
2021/04/13 10:18:55;;;;;;;7.40;6.80;;;8.60;99.90;;;;;;5024437;28;20198;-79
2021/04/13 10:21:48;;;;;;;8.97;6.90;;;8.70;99.90;;;;;;5007329;28;20198;-78
2021/04/13 10:24:41;;;;;;;7.90;7.20;;;9.10;99.90;;;;;;5027730;28;20188;-78
2021/04/13 10:27:39;;;;;;;8.47;7.70;;;9.40;99.90;;;;;;5018876;28;20211;-77
2021/04/13 10:30:33;;;;;;;7.90;7.20;;;9.60;99.90;;;;;;4980976;28;20232;-78
2021/04/13 10:33:09;;;;;;;7.77;7.07;;;10.10;99.90;;;;;;5020564;28;20645;-79
2021/04/13 10:36:25;;;;;;;7.80;7.20;;;10.80;99.90;;;;;;5020966;28;20255;-78
2021/04/13 10:39:20;;;;;;;8.20;7.40;;;10.40;99.90;;;;;;5023579;28;20192;-79
2021/04/13 10:42:42;;;;;;;8.70;8.00;;;9.80;99.90;;;;;;5027438;28;20212;-78
2021/04/13 10:45:44;;;;;;;8.30;7.53;;;9.90;99.90;;;;;;5020433;28;20196;-80
2021/04/13 10:48:43;;;;;;;8.23;7.53;;;9.70;99.90;;;;;;5025555;28;20199;-79
2021/04/13 10:51:30;;;;;;;7.73;6.93;;;9.90;99.90;;;;;;5025247;28;20232;-78
2021/04/13 10:54:26;;;;;;;7.47;6.80;;;9.50;99.90;;;;;;5016073;28;20203;-79
2021/04/13 10:57:26;;;;;;;6.93;6.33;;;9.30;99.90;;;;;;5020001;28;20211;-79
2021/04/13 11:00:30;;;;;;;7.00;6.13;;;9.20;99.90;;;;;;5035027;28;20220;-77
2021/04/13 11:03:30;;;;;;;6.23;5.73;;;9.00;99.90;;;;;;5016934;28;20207;-79
2021/04/13 11:06:38;;;;;;;5.70;5.20;;;8.90;99.90;;;;;;5021277;28;20197;-79
2021/04/13 11:09:27;;;;;;;7.13;6.50;;;9.10;99.90;;;;;;5023636;28;20215;-78
2021/04/13 11:12:30;;;;;;;8.07;7.27;;;9.10;99.90;;;;;;5008210;28;20201;-78
2021/04/13 11:15:24;;;;;;;8.60;7.80;;;9.30;99.90;;;;;;5005686;28;20211;-78
2021/04/13 11:18:00;;;;;;;9.33;8.20;;;9.50;99.90;;;;;;5022717;28;20195;-78
2021/04/13 11:20:50;;;;;;;7.73;7.03;;;9.60;99.90;;;;;;5026158;28;20216;-79
2021/04/13 11:23:44;;;;;;;7.80;7.00;;;10.00;99.90;;;;;;5021559;28;20228;-77
2021/04/13 11:26:50;;;;;;;8.07;7.37;;;10.30;99.90;;;;;;5021021;28;20205;-79
2021/04/13 11:29:50;;;;;;;9.00;8.03;;;9.80;99.90;;;;;;5026103;28;20298;-77
2021/04/13 11:32:49;;;;;;;8.77;7.97;;;9.50;99.90;;;;;;5032597;28;20203;-78
2021/04/13 11:35:22;;;;;;;8.50;7.70;;;9.30;99.90;;;;;;5023365;28;20201;-78
2021/04/13 11:38:32;;;;;;;9.40;8.50;;;9.40;99.90;;;;;;5024736;28;20190;-79
2021/04/13 11:41:46;;;;;;;9.17;8.37;;;9.30;99.90;;;;;;4960535;28;20220;-79
2021/04/13 11:44:20;;;;;;;8.43;7.73;;;9.10;99.90;;;;;;5011655;28;20199;-77
2021/04/13 11:46:54;;;;;;;8.47;7.57;;;9.60;99.90;;;;;;5026622;28;20295;-78
2021/04/13 11:49:26;;;;;;;8.83;7.83;;;9.70;99.90;;;;;;5028805;28;20217;-78
2021/04/13 11:51:58;;;;;;;9.37;7.50;;;9.40;99.90;;;;;;5022708;28;20189;-78
2021/04/13 11:54:47;;;;;;;8.10;7.40;;;9.30;99.90;;;;;;5015663;28;20196;-77
2021/04/13 11:57:17;;;;;;;8.17;7.37;;;9.10;99.90;;;;;;5021464;28;20232;-78
2021/04/13 12:00:22;;;;;;;6.37;5.77;;;9.10;99.90;;;;;;5022000;28;20307;-77
2021/04/13 12:03:11;;;;;;;8.67;7.80;;;9.00;99.90;;;;;;5021866;28;20215;-77
2021/04/13 12:05:45;;;;;;;8.67;7.53;;;8.90;99.90;;;;;;5018663;28;20200;-77
2021/04/13 12:08:49;;;;;;;8.47;7.67;;;8.50;99.90;;;;;;5029098;28;20208;-77
2021/04/13 12:11:38;;;;;;;8.87;7.37;;;8.50;99.90;;;;;;5024983;28;20190;-78
2021/04/13 12:14:46;;;;;;;7.80;7.00;;;8.40;99.90;;;;;;5022618;28;20215;-78
2021/04/13 12:17:38;;;;;;;7.13;6.53;;;8.50;99.90;;;;;;4976982;28;20262;-78
2021/04/13 12:20:45;;;;;;;8.10;7.30;;;8.60;98.10;;;;;;5015194;28;20709;-76
2021/04/13 12:23:47;;;;;;;8.93;8.00;;;8.50;96.40;;;;;;5020950;28;20221;-77
2021/04/13 12:26:29;;;;;;;7.93;7.13;;;8.70;97.30;;;;;;5026925;28;20193;-78
2021/04/13 12:29:15;;;;;;;7.80;6.97;;;8.80;97.00;;;;;;5010261;28;20305;-80
2021/04/13 12:31:42;;;;;;;6.70;6.20;;;9.00;96.90;;;;;;5024459;28;20243;-79
2021/04/13 12:34:09;;;;;;;6.90;6.20;;;9.20;96.90;;;;;;5025317;28;20207;-77
2021/04/13 12:36:57;;;;;;;6.80;6.10;;;9.40;94.70;;;;;;5022650;28;20660;-79
2021/04/13 12:39:58;;;;;;;5.80;5.20;;;9.50;95.50;;;;;;5027238;28;20231;-80
2021/04/13 12:42:47;;;;;;;6.00;5.40;;;9.60;95.80;;;;;;5021599;28;20275;-80
2021/04/13 12:45:42;;;;;;;6.17;5.67;;;9.80;95.90;;;;;;5020070;28;20211;-77
2021/04/13 12:48:28;;;;;;;7.33;6.17;;;10.00;96.90;;;;;;5021262;28;20697;-79
2021/04/13 12:51:12;;;;;;;6.77;6.17;;;9.90;94.90;;;;;;5023988;28;20224;-79
2021/04/13 12:53:38;;;;;;;6.60;6.00;;;9.70;95.30;;;;;;5029606;28;20200;-80
2021/04/13 12:56:08;;;;;;;5.27;4.87;;;9.40;92.00;;;;;;5030137;28;20196;-79
2021/04/13 12:58:37;;;;;;;6.00;5.50;;;9.10;90.60;;;;;;5029195;28;20203;-79
2021/04/13 13:01:04;;;;;;;7.00;5.50;;;9.10;91.00;;;;;;5025341;28;20204;-79
2021/04/13 13:03:35;;;;;;;5.37;4.90;;;9.20;92.50;;;;;;5017340;28;20205;-78
2021/04/13 13:06:17;;;;;;;5.80;5.20;;;9.40;93.20;;;;;;5011193;28;20204;-79
2021/04/13 13:08:54;;;;;;;6.87;5.70;;;9.50;91.80;;;;;;5028110;28;20239;-80
2021/04/13 13:11:20;;;;;;;5.63;5.13;;;9.50;92.10;;;;;;5026195;28;20200;-79
2021/04/13 13:13:50;;;;;;;5.93;5.43;;;9.80;91.60;;;;;;5022285;28;20209;-79
2021/04/13 13:16:22;;;;;;;7.60;6.50;;;9.90;93.20;;;;;;5020230;28;20200;-80
2021/04/13 13:18:50;;;;;;;6.33;5.50;;;9.90;91.70;;;;;;5019096;28;20197;-78
2021/04/13 13:21:19;;;;;;;6.03;5.43;;;9.80;91.00;;;;;;5019224;28;20204;-78
2021/04/13 13:23:48;;;;;;;5.97;5.47;;;9.60;90.10;;;;;;5028535;28;20249;-80
2021/04/13 13:26:18;;;;;;;5.27;4.77;;;9.60;91.10;;;;;;5017848;28;20195;-80
2021/04/13 13:28:45;;;;;;;5.87;5.37;;;9.50;88.40;;;;;;5018628;28;20690;-79
2021/04/13 13:31:19;;;;;;;6.30;5.70;;;9.70;88.20;;;;;;5029256;28;20188;-79
2021/04/13 13:33:47;;;;;;;6.77;6.07;;;9.80;92.40;;;;;;5017461;28;20188;-79